createdAt,value
2018-04-16T00:01:11.534Z,6.50
2018-04-16T00:03:39.069Z,6.70
2018-04-16T00:06:06.630Z,5.87
2018-04-16T00:08:34.179Z,6.50
2018-04-16T00:11:02.512Z,6.50
2018-04-16T00:13:30.811Z,6.00
2018-04-16T00:15:58.400Z,5.87
2018-04-16T00:18:25.963Z,6.47
2018-04-16T00:20:53.525Z,5.67
2018-04-16T00:23:21.069Z,6.07
2018-04-16T00:25:49.389Z,6.07
2018-04-16T00:28:16.936Z,5.23
2018-04-16T00:30:45.530Z,5.07
2018-04-16T00:33:18.846Z,5.07
2018-04-16T00:35:52.117Z,4.90
2018-04-16T00:38:25.307Z,5.20
2018-04-16T00:40:58.508Z,5.03
2018-04-16T00:43:31.739Z,5.67
2018-04-16T00:46:05.784Z,6.43
2018-04-16T00:48:38.958Z,6.00
2018-04-16T00:51:13.031Z,5.93
2018-04-16T00:53:58.266Z,5.77
2018-04-16T00:56:31.476Z,5.93
2018-04-16T00:59:04.627Z,5.97
2018-04-16T01:01:38.708Z,5.47
2018-04-16T01:04:11.920Z,4.90
2018-04-16T01:06:45.840Z,5.40
2018-04-16T01:09:19.760Z,5.60
2018-04-16T01:11:52.945Z,6.13
2018-04-16T01:14:26.117Z,5.80
2018-04-16T01:17:00.063Z,5.50
2018-04-16T01:19:33.324Z,6.73
2018-04-16T01:22:07.341Z,5.67
2018-04-16T01:24:41.315Z,5.97
2018-04-16T01:27:14.787Z,5.40
2018-04-16T01:29:48.088Z,6.33
2018-04-16T01:32:21.500Z,4.73
2018-04-16T01:34:54.619Z,5.60
2018-04-16T01:37:28.640Z,5.50
2018-04-16T01:40:03.685Z,5.20
2018-04-16T01:42:36.988Z,5.40
2018-04-16T01:45:10.112Z,5.53
2018-04-16T01:47:43.296Z,5.40
2018-04-16T01:50:16.548Z,5.80
2018-04-16T01:52:50.616Z,5.00
2018-04-16T01:55:23.783Z,5.00
2018-04-16T01:57:56.999Z,5.10
2018-04-16T02:00:30.289Z,5.27
2018-04-16T02:03:03.500Z,5.67
2018-04-16T02:05:36.675Z,5.50
2018-04-16T02:08:09.842Z,4.50
2018-04-16T02:10:42.990Z,5.17
2018-04-16T02:13:16.968Z,5.37
2018-04-16T02:15:50.255Z,5.17
2018-04-16T02:18:23.595Z,6.67
2018-04-16T02:20:57.592Z,6.40
2018-04-16T02:23:30.803Z,6.47
2018-04-16T02:26:04.816Z,5.97
2018-04-16T02:28:38.817Z,6.83
2018-04-16T02:31:12.909Z,6.23
2018-04-16T02:33:46.120Z,6.77
2018-04-16T02:36:20.080Z,6.70
2018-04-16T02:38:53.360Z,6.70
2018-04-16T02:41:26.531Z,7.43
2018-04-16T02:43:59.740Z,7.40
2018-04-16T02:46:32.900Z,7.23
2018-04-16T02:49:06.965Z,7.50
2018-04-16T02:51:40.232Z,7.53
2018-04-16T02:54:13.444Z,7.70
2018-04-16T02:56:46.571Z,7.70
2018-04-16T02:59:19.840Z,8.13
2018-04-16T03:01:53.170Z,8.47
2018-04-16T03:04:26.512Z,8.07
2018-04-16T03:06:59.758Z,8.63
2018-04-16T03:09:33.755Z,8.83
2018-04-16T03:12:06.878Z,8.10
2018-04-16T03:14:40.254Z,8.20
2018-04-16T03:17:14.256Z,8.20
2018-04-16T03:19:47.597Z,7.90
2018-04-16T03:22:20.855Z,8.07
2018-04-16T03:24:54.791Z,7.73
2018-04-16T03:27:27.994Z,8.70
2018-04-16T03:30:01.227Z,9.90
2018-04-16T03:32:34.619Z,8.77
2018-04-16T03:35:07.762Z,9.50
2018-04-16T03:37:40.936Z,9.43
2018-04-16T03:40:15.034Z,9.77
2018-04-16T03:42:48.291Z,9.83
2018-04-16T03:45:21.466Z,10.97
2018-04-16T03:47:54.722Z,11.57
2018-04-16T03:50:28.763Z,10.40
2018-04-16T03:53:01.964Z,10.33
2018-04-16T03:58:33.741Z,9.13
2018-04-16T04:01:01.321Z,10.43
2018-04-16T04:03:28.880Z,10.27
2018-04-16T04:05:56.461Z,10.20
2018-04-16T04:08:24.780Z,9.87
2018-04-16T04:10:52.353Z,10.77
2018-04-16T04:13:19.903Z,10.27
2018-04-16T04:15:47.482Z,10.30
2018-04-16T04:18:15.022Z,9.27
2018-04-16T04:20:42.624Z,10.50
2018-04-16T04:23:21.981Z,11.10
2018-04-16T04:26:01.465Z,11.57
2018-04-16T04:28:40.918Z,9.87
2018-04-16T04:31:08.489Z,12.10
2018-04-16T04:33:36.042Z,11.20
2018-04-16T04:36:03.617Z,10.50
2018-04-16T04:38:31.165Z,10.83
2018-04-16T04:40:58.735Z,10.60
2018-04-16T04:43:26.296Z,11.70
2018-04-16T04:45:53.876Z,10.90
2018-04-16T04:48:22.194Z,11.47
2018-04-16T04:50:49.768Z,11.43
2018-04-16T04:53:17.324Z,10.67
2018-04-16T04:55:44.893Z,10.23
2018-04-16T04:58:12.443Z,11.10
2018-04-16T05:00:40.015Z,10.27
2018-04-16T05:03:07.570Z,9.60
2018-04-16T05:05:35.149Z,10.07
2018-04-16T05:08:02.717Z,9.43
2018-04-16T05:10:30.372Z,9.00
2018-04-16T05:12:58.801Z,10.00
2018-04-16T05:15:26.352Z,10.67
2018-04-16T05:17:53.923Z,10.40
2018-04-16T05:20:21.489Z,9.50
2018-04-16T05:22:49.070Z,10.20
2018-04-16T05:25:16.618Z,10.03
2018-04-16T05:27:44.177Z,9.73
2018-04-16T05:30:11.730Z,8.93
2018-04-16T05:32:39.304Z,9.30
2018-04-16T05:35:06.853Z,9.83
2018-04-16T05:37:34.440Z,10.13
2018-04-16T05:40:02.077Z,11.07
2018-04-16T05:42:29.659Z,10.90
2018-04-16T05:44:57.244Z,11.23
2018-04-16T05:47:24.823Z,10.40
2018-04-16T05:49:53.148Z,9.20
2018-04-16T05:52:20.714Z,10.13
2018-04-16T05:54:48.271Z,10.60
2018-04-16T05:57:15.842Z,9.30
2018-04-16T05:59:43.401Z,13.10
2018-04-16T06:02:10.985Z,11.90
2018-04-16T06:04:39.329Z,12.60
2018-04-16T06:07:06.883Z,12.40
2018-04-16T06:09:34.441Z,9.70
2018-04-16T06:12:02.004Z,11.03
2018-04-16T06:14:29.579Z,10.73
2018-04-16T06:16:57.126Z,11.13
2018-04-16T06:19:24.714Z,10.13
2018-04-16T06:21:52.265Z,10.83
2018-04-16T06:24:20.601Z,9.80
2018-04-16T06:26:48.149Z,9.30
2018-04-16T06:29:15.721Z,9.80
2018-04-16T06:31:43.256Z,9.80
2018-04-16T06:34:11.596Z,9.80
2018-04-16T06:36:39.145Z,9.57
2018-04-16T06:39:06.715Z,8.87
2018-04-16T06:41:34.281Z,9.63
2018-04-16T06:44:01.871Z,11.03
2018-04-16T06:46:29.447Z,9.77
2018-04-16T06:48:57.030Z,8.83
2018-04-16T06:51:24.587Z,11.00
2018-04-16T06:53:52.158Z,10.43
2018-04-16T06:56:19.699Z,10.30
2018-04-16T06:58:47.268Z,11.03
2018-04-16T07:01:14.865Z,11.13
2018-04-16T07:03:43.250Z,10.23
2018-04-16T07:06:11.576Z,10.30
2018-04-16T07:08:39.140Z,9.83
2018-04-16T07:11:06.707Z,9.73
2018-04-16T07:13:35.042Z,12.37
2018-04-16T07:16:02.667Z,10.20
2018-04-16T07:18:30.970Z,8.30
2018-04-16T07:20:58.572Z,9.00
2018-04-16T07:23:26.132Z,8.80
2018-04-16T07:25:53.702Z,9.40
2018-04-16T07:28:21.251Z,9.30
2018-04-16T07:30:48.825Z,8.23
2018-04-16T07:33:16.379Z,8.23
2018-04-16T07:35:43.951Z,8.40
2018-04-16T07:38:11.496Z,7.40
2018-04-16T07:40:39.064Z,7.60
2018-04-16T07:43:06.619Z,8.23
2018-04-16T07:45:34.195Z,7.23
2018-04-16T07:48:01.743Z,6.80
2018-04-16T07:50:29.306Z,6.97
2018-04-16T07:52:56.848Z,7.30
2018-04-16T07:55:24.421Z,7.03
2018-04-16T07:57:51.955Z,7.17
2018-04-16T08:00:19.529Z,7.50
2018-04-16T08:02:47.080Z,7.63
2018-04-16T08:05:14.651Z,7.27
2018-04-16T08:07:42.193Z,7.00
2018-04-16T08:10:09.748Z,6.77
2018-04-16T08:12:37.321Z,7.23
2018-04-16T08:15:04.873Z,7.50
2018-04-16T08:17:32.443Z,6.93
2018-04-16T08:19:59.997Z,7.50
2018-04-16T08:22:27.557Z,7.43
2018-04-16T08:24:55.104Z,7.83
2018-04-16T08:27:22.672Z,7.20
2018-04-16T08:29:50.250Z,7.10
2018-04-16T08:32:17.815Z,7.50
2018-04-16T08:34:45.432Z,7.97
2018-04-16T08:37:13.113Z,7.63
2018-04-16T08:39:40.688Z,7.70
2018-04-16T08:42:08.263Z,7.67
2018-04-16T08:44:35.795Z,7.90
2018-04-16T08:47:03.365Z,7.90
2018-04-16T08:49:30.910Z,8.33
2018-04-16T08:51:58.487Z,8.13
2018-04-16T08:54:26.035Z,7.93
2018-04-16T08:56:53.611Z,7.53
2018-04-16T08:59:21.145Z,8.63
2018-04-16T09:01:48.714Z,7.77
2018-04-16T09:04:16.247Z,7.03
2018-04-16T09:06:44.588Z,7.10
2018-04-16T09:09:12.135Z,7.10
2018-04-16T09:11:39.708Z,6.10
2018-04-16T09:14:07.254Z,6.47
2018-04-16T09:16:34.803Z,7.00
2018-04-16T09:19:02.361Z,7.10
2018-04-16T09:21:29.908Z,6.83
2018-04-16T09:23:57.491Z,7.13
2018-04-16T09:26:25.041Z,6.10
2018-04-16T09:28:52.619Z,6.27
2018-04-16T09:31:20.155Z,6.37
2018-04-16T09:33:47.735Z,6.07
2018-04-16T09:36:15.287Z,5.63
2018-04-16T09:38:42.868Z,5.43
2018-04-16T09:41:10.409Z,6.10
2018-04-16T09:43:37.981Z,6.33
2018-04-16T09:46:05.527Z,5.57
2018-04-16T09:48:33.082Z,5.73
2018-04-16T09:51:00.625Z,4.90
2018-04-16T09:53:28.192Z,4.57
2018-04-16T09:55:55.758Z,4.80
2018-04-16T09:58:23.331Z,3.87
2018-04-16T10:00:50.894Z,3.63
2018-04-16T10:03:18.467Z,4.90
2018-04-16T10:05:46.017Z,4.13
2018-04-16T10:08:13.590Z,3.50
2018-04-16T10:10:41.136Z,2.40
2018-04-16T10:13:08.708Z,1.80
2018-04-16T10:15:36.264Z,2.13
2018-04-16T10:18:03.879Z,2.87
2018-04-16T10:20:31.431Z,2.83
2018-04-16T10:22:58.974Z,2.27
2018-04-16T10:25:26.538Z,2.93
2018-04-16T10:27:54.073Z,2.80
2018-04-16T10:30:22.393Z,3.13
2018-04-16T10:32:49.920Z,1.80
2018-04-16T10:35:18.245Z,2.27
2018-04-16T10:37:45.783Z,2.70
2018-04-16T10:40:13.703Z,2.40
2018-04-16T10:42:41.255Z,2.00
2018-04-16T10:45:08.840Z,2.70
2018-04-16T10:47:37.137Z,2.90
2018-04-16T10:50:04.720Z,2.53
2018-04-16T10:52:32.288Z,2.83
2018-04-16T10:54:59.909Z,2.60
2018-04-16T10:57:27.541Z,3.30
2018-04-16T10:59:55.892Z,3.37
2018-04-16T11:02:23.443Z,3.33
2018-04-16T11:04:51.001Z,2.40
2018-04-16T11:07:18.542Z,2.63
2018-04-16T11:09:46.108Z,2.97
2018-04-16T11:12:13.651Z,3.40
2018-04-16T11:14:41.223Z,3.50
2018-04-16T11:17:08.862Z,3.33
2018-04-16T11:19:36.439Z,2.80
2018-04-16T11:22:03.996Z,3.70
2018-04-16T11:24:32.318Z,3.40
2018-04-16T11:26:59.857Z,3.50
2018-04-16T11:29:27.415Z,2.90
2018-04-16T11:31:54.970Z,3.23
2018-04-16T11:34:22.544Z,3.63
2018-04-16T11:36:50.094Z,3.53
2018-04-16T11:39:17.651Z,2.23
2018-04-16T11:41:45.245Z,2.60
2018-04-16T11:44:12.794Z,2.77
2018-04-16T11:46:40.358Z,4.40
2018-04-16T11:49:07.917Z,2.80
2018-04-16T11:51:35.487Z,3.03
2018-04-16T11:54:03.045Z,2.90
2018-04-16T11:56:30.615Z,2.53
2018-04-16T11:58:58.153Z,2.17
2018-04-16T12:01:25.724Z,2.80
2018-04-16T12:03:53.348Z,2.13
2018-04-16T12:06:21.737Z,2.00
2018-04-16T12:08:49.287Z,1.77
2018-04-16T12:11:16.862Z,2.20
2018-04-16T12:13:44.408Z,2.00
2018-04-16T12:16:11.981Z,1.73
2018-04-16T12:18:39.521Z,2.40
2018-04-16T12:21:07.111Z,2.13
2018-04-16T12:23:34.656Z,2.13
2018-04-16T12:26:02.233Z,1.97
2018-04-16T12:28:29.782Z,2.57
2018-04-16T12:30:58.113Z,2.00
2018-04-16T12:33:25.661Z,2.07
2018-04-16T12:35:53.983Z,2.10
2018-04-16T12:38:21.528Z,2.73
2018-04-16T12:40:49.100Z,2.30
2018-04-16T12:43:16.638Z,2.27
2018-04-16T12:45:44.207Z,2.30
2018-04-16T12:48:11.767Z,2.57
2018-04-16T12:50:39.331Z,2.40
2018-04-16T12:53:06.884Z,2.43
2018-04-16T12:55:34.445Z,2.83
2018-04-16T12:58:02.007Z,3.00
2018-04-16T13:00:29.539Z,2.20
2018-04-16T13:02:57.100Z,2.10
2018-04-16T13:05:24.650Z,1.70
2018-04-16T13:07:53.041Z,2.30
2018-04-16T13:10:20.552Z,1.50
2018-04-16T13:12:48.114Z,2.70
2018-04-16T13:15:15.662Z,2.70
2018-04-16T13:17:43.234Z,3.47
2018-04-16T13:20:10.827Z,3.00
2018-04-16T13:22:38.383Z,3.30
2018-04-16T13:25:06.703Z,2.80
2018-04-16T13:27:34.258Z,3.20
2018-04-16T13:30:01.909Z,2.70
2018-04-16T13:32:29.505Z,3.10
2018-04-16T13:34:57.047Z,3.00
2018-04-16T13:37:24.615Z,3.07
2018-04-16T13:39:52.151Z,2.77
2018-04-16T13:42:19.706Z,2.87
2018-04-16T13:44:47.255Z,3.00
2018-04-16T13:47:14.831Z,3.07
2018-04-16T13:49:42.370Z,2.80
2018-04-16T13:52:09.932Z,2.50
2018-04-16T13:54:37.475Z,2.30
2018-04-16T13:57:05.806Z,2.90
2018-04-16T13:59:33.348Z,2.80
2018-04-16T14:02:00.891Z,3.07
2018-04-16T14:04:28.471Z,3.53
2018-04-16T14:06:56.025Z,2.60
2018-04-16T14:09:23.587Z,2.70
2018-04-16T14:11:51.137Z,2.20
2018-04-16T14:14:18.708Z,2.77
2018-04-16T14:16:46.256Z,2.73
2018-04-16T14:19:13.819Z,2.67
2018-04-16T14:21:41.360Z,2.63
2018-04-16T14:24:08.934Z,2.80
2018-04-16T14:26:36.515Z,2.77
2018-04-16T14:29:04.085Z,2.83
2018-04-16T14:31:31.641Z,3.10
2018-04-16T14:33:59.206Z,2.50
2018-04-16T14:36:26.753Z,2.83
2018-04-16T14:38:54.355Z,4.17
2018-04-16T14:41:22.671Z,3.70
2018-04-16T14:43:50.705Z,3.00
2018-04-16T14:46:19.024Z,3.23
2018-04-16T14:48:46.553Z,2.27
2018-04-16T14:51:14.893Z,2.80
2018-04-16T14:53:42.444Z,2.20
2018-04-16T14:56:10.026Z,3.13
2018-04-16T14:58:37.586Z,3.43
2018-04-16T15:01:05.155Z,2.77
2018-04-16T15:03:33.541Z,2.60
2018-04-16T15:06:01.100Z,3.87
2018-04-16T15:08:29.412Z,2.33
2018-04-16T15:10:57.003Z,2.10
2018-04-16T15:13:25.316Z,1.93
2018-04-16T15:15:53.654Z,2.20
2018-04-16T15:18:21.198Z,2.20
2018-04-16T15:20:48.768Z,2.40
2018-04-16T15:23:16.317Z,2.10
2018-04-16T15:25:43.884Z,2.40
2018-04-16T15:28:11.424Z,2.67
2018-04-16T15:30:39.072Z,2.67
2018-04-16T15:33:06.649Z,2.27
2018-04-16T15:35:34.225Z,2.23
2018-04-16T15:38:01.762Z,2.90
2018-04-16T15:40:29.341Z,3.10
2018-04-16T15:42:56.904Z,2.30
2018-04-16T15:45:25.240Z,2.27
2018-04-16T15:47:52.815Z,2.47
2018-04-16T15:50:20.416Z,2.43
2018-04-16T15:52:47.958Z,2.10
2018-04-16T15:55:16.292Z,2.00
2018-04-16T15:57:43.851Z,2.03
2018-04-16T16:00:12.192Z,2.00
2018-04-16T16:02:39.743Z,2.17
2018-04-16T16:05:07.317Z,2.70
2018-04-16T16:07:34.895Z,2.70
2018-04-16T16:10:03.204Z,1.97
2018-04-16T16:12:30.766Z,2.27
2018-04-16T16:14:58.328Z,2.13
2018-04-16T16:17:25.895Z,2.00
2018-04-16T16:19:53.442Z,2.20
2018-04-16T16:22:21.027Z,2.20
2018-04-16T16:24:48.583Z,2.30
2018-04-16T16:27:16.152Z,2.50
2018-04-16T16:29:43.708Z,2.87
2018-04-16T16:32:11.273Z,2.87
2018-04-16T16:34:38.818Z,2.57
2018-04-16T16:37:06.389Z,2.17
2018-04-16T16:39:33.927Z,1.70
2018-04-16T16:42:01.491Z,2.33
2018-04-16T16:44:29.040Z,2.10
2018-04-16T16:46:56.610Z,1.80
2018-04-16T16:49:24.239Z,1.90
2018-04-16T16:51:52.565Z,2.50
2018-04-16T16:54:20.930Z,7.50
2018-04-16T16:56:48.547Z,3.50
2018-04-16T16:59:16.127Z,2.37
2018-04-16T17:01:43.699Z,2.27
2018-04-16T17:04:11.248Z,2.70
2018-04-16T17:06:38.826Z,2.07
2018-04-16T17:09:06.385Z,2.43
2018-04-16T17:11:33.981Z,2.13
2018-04-16T17:14:01.568Z,2.37
2018-04-16T17:16:29.165Z,2.37
2018-04-16T17:18:56.787Z,2.47
2018-04-16T17:21:25.120Z,1.83
2018-04-16T17:23:52.692Z,2.40
2018-04-16T17:26:20.258Z,1.80
2018-04-16T17:28:47.957Z,2.60
2018-04-16T17:31:15.559Z,2.40
2018-04-16T17:33:43.156Z,2.40
2018-04-16T17:36:10.706Z,2.10
2018-04-16T17:38:38.270Z,2.63
2018-04-16T17:41:05.811Z,2.30
2018-04-16T17:43:33.376Z,1.90
2018-04-16T17:46:00.916Z,2.03
2018-04-16T17:48:28.478Z,1.97
2018-04-16T17:50:56.028Z,2.30
2018-04-16T17:53:23.592Z,2.50
2018-04-16T17:55:51.126Z,2.10
2018-04-16T17:58:18.699Z,2.87
2018-04-16T18:00:46.244Z,2.40
2018-04-16T18:03:13.828Z,1.97
2018-04-16T18:05:41.368Z,1.80
2018-04-16T18:08:08.941Z,2.67
2018-04-16T18:10:36.487Z,2.67
2018-04-16T18:13:04.079Z,1.97
2018-04-16T18:15:31.624Z,2.03
2018-04-16T18:17:59.166Z,3.63
2018-04-16T18:20:26.734Z,3.67
2018-04-16T18:22:54.280Z,3.77
2018-04-16T18:25:21.848Z,3.03
2018-04-16T18:27:49.386Z,5.70
2018-04-16T18:30:17.721Z,3.77
2018-04-16T18:32:46.258Z,4.00
2018-04-16T18:35:13.818Z,4.20
2018-04-16T18:37:41.388Z,5.30
2018-04-16T18:40:08.956Z,6.60
2018-04-16T18:42:36.511Z,5.20
2018-04-16T18:45:04.093Z,5.37
2018-04-16T18:47:31.645Z,6.70
2018-04-16T18:49:59.229Z,6.53
2018-04-16T18:52:26.761Z,6.63
2018-04-16T18:54:54.320Z,8.23
2018-04-16T18:57:21.862Z,8.10
2018-04-16T18:59:49.432Z,7.20
2018-04-16T19:02:16.966Z,5.50
2018-04-16T19:04:44.523Z,5.80
2018-04-16T19:07:12.095Z,4.50
2018-04-16T19:09:39.683Z,8.90
2018-04-16T19:12:07.234Z,6.27
2018-04-16T19:14:34.826Z,5.90
2018-04-16T19:17:02.372Z,5.30
2018-04-16T19:19:29.907Z,5.60
2018-04-16T19:21:57.467Z,5.07
2018-04-16T19:24:25.012Z,4.87
2018-04-16T19:26:58.153Z,6.00
2018-04-16T19:29:25.696Z,5.50
2018-04-16T19:31:53.286Z,4.43
2018-04-16T19:34:27.327Z,4.30
2018-04-16T19:36:54.906Z,4.90
2018-04-16T19:39:22.447Z,4.07
2018-04-16T19:44:55.488Z,4.27
2018-04-16T19:47:23.136Z,4.37
2018-04-16T19:49:56.438Z,3.60
2018-04-16T19:52:24.023Z,3.97
2018-04-16T19:54:51.571Z,4.73
2018-04-16T19:57:24.984Z,4.70
2018-04-16T19:59:52.547Z,3.83
2018-04-16T20:02:25.841Z,4.17
2018-04-16T20:04:53.568Z,4.30
2018-04-16T20:07:21.135Z,4.17
2018-04-16T20:09:48.671Z,3.60
2018-04-16T20:12:16.226Z,3.33
2018-04-16T20:14:43.766Z,2.87
2018-04-16T20:17:12.180Z,3.37
2018-04-16T20:19:39.717Z,4.17
2018-04-16T20:22:07.284Z,4.50
2018-04-16T20:24:34.829Z,3.30
2018-04-16T20:27:02.406Z,5.30
2018-04-16T20:29:29.941Z,4.17
2018-04-16T20:31:58.274Z,4.17
2018-04-16T20:34:25.816Z,4.30
2018-04-16T20:36:53.374Z,4.53
2018-04-16T20:39:20.919Z,4.43
2018-04-16T20:41:48.466Z,4.00
2018-04-16T20:44:16.048Z,3.73
2018-04-16T20:46:43.593Z,3.50
2018-04-16T20:49:11.158Z,3.93
2018-04-16T20:51:38.690Z,3.90
2018-04-16T20:54:07.135Z,4.17
2018-04-16T20:56:34.700Z,3.80
2018-04-16T20:59:02.283Z,4.13
2018-04-16T21:01:30.595Z,4.33
2018-04-16T21:03:58.179Z,4.17
2018-04-16T21:06:25.733Z,4.23
2018-04-16T21:08:53.307Z,4.50
2018-04-16T21:11:20.848Z,4.07
2018-04-16T21:13:48.438Z,4.47
2018-04-16T21:16:16.783Z,4.77
2018-04-16T21:18:44.360Z,4.33
2018-04-16T21:21:11.908Z,3.93
2018-04-16T21:23:39.480Z,5.20
2018-04-16T21:26:07.022Z,4.30
2018-04-16T21:28:34.596Z,4.43
2018-04-16T21:31:02.129Z,3.90
2018-04-16T21:33:29.670Z,3.23
2018-04-16T21:35:57.231Z,3.27
2018-04-16T21:38:25.538Z,3.20
2018-04-16T21:40:53.105Z,3.17
2018-04-16T21:43:20.651Z,3.10
2018-04-16T21:45:48.220Z,2.80
2018-04-16T21:48:15.764Z,3.27
2018-04-16T21:50:43.331Z,3.33
2018-04-16T21:53:10.874Z,3.83
2018-04-16T21:55:38.552Z,3.50
2018-04-16T21:58:06.095Z,3.80
2018-04-16T22:00:33.661Z,3.30
2018-04-16T22:03:01.207Z,4.27
2018-04-16T22:05:28.789Z,3.70
2018-04-16T22:07:56.330Z,3.50
2018-04-16T22:10:23.942Z,4.13
2018-04-16T22:12:51.466Z,4.37
2018-04-16T22:15:19.032Z,5.70
2018-04-16T22:17:46.580Z,5.20
2018-04-16T22:20:14.152Z,6.60
2018-04-16T22:22:41.709Z,4.17
2018-04-16T22:25:09.272Z,4.10
2018-04-16T22:27:36.806Z,4.07
2018-04-16T22:30:04.392Z,3.70
2018-04-16T22:32:31.946Z,3.47
2018-04-16T22:34:59.540Z,4.43
2018-04-16T22:37:27.089Z,3.37
2018-04-16T22:39:54.819Z,3.03
2018-04-16T22:42:22.374Z,3.60
2018-04-16T22:44:49.937Z,3.63
2018-04-16T22:47:17.513Z,3.77
2018-04-16T22:49:45.042Z,3.60
2018-04-16T22:52:12.611Z,3.83
2018-04-16T22:54:40.156Z,3.70
2018-04-16T22:57:08.492Z,2.93
2018-04-16T22:59:36.035Z,3.90
2018-04-16T23:02:03.599Z,3.53
2018-04-16T23:04:31.163Z,3.87
2018-04-16T23:06:58.732Z,4.07
2018-04-16T23:09:26.286Z,4.00
2018-04-16T23:11:53.857Z,4.10
2018-04-16T23:14:21.399Z,3.90
2018-04-16T23:16:48.958Z,4.10
2018-04-16T23:19:16.507Z,4.33
2018-04-16T23:21:44.079Z,4.43
2018-04-16T23:24:11.623Z,4.03
2018-04-16T23:26:39.190Z,3.80
2018-04-16T23:29:06.732Z,4.00
2018-04-16T23:31:34.300Z,4.13
2018-04-16T23:34:01.848Z,3.73
2018-04-16T23:36:29.428Z,4.70
2018-04-16T23:38:56.969Z,4.30
2018-04-16T23:41:24.553Z,4.30
2018-04-16T23:43:52.100Z,3.87
2018-04-16T23:46:19.663Z,4.10
2018-04-16T23:48:47.208Z,4.30
2018-04-16T23:51:14.752Z,3.70
2018-04-16T23:53:42.339Z,4.67
2018-04-16T23:56:09.927Z,4.77
2018-04-16T23:58:38.275Z,4.40
